createdAt,value
2022-09-09T00:01:54.662Z,5.80
2022-09-09T00:04:31.239Z,4.45
2022-09-09T00:07:36.783Z,3.42
2022-09-09T00:10:19.163Z,3.10
2022-09-09T00:12:56.729Z,3.78
2022-09-09T00:15:30.138Z,3.15
2022-09-09T00:18:15.657Z,3.00
2022-09-09T00:20:51.824Z,3.38
2022-09-09T00:23:33.666Z,2.80
2022-09-09T00:26:21.590Z,3.20
2022-09-09T00:29:08.590Z,3.67
2022-09-09T00:31:38.248Z,3.83
2022-09-09T00:34:23.769Z,3.55
2022-09-09T00:36:53.909Z,4.00
2022-09-09T00:39:38.955Z,4.57
2022-09-09T00:42:25.307Z,3.88
2022-09-09T00:44:57.520Z,5.07
2022-09-09T00:47:41.401Z,6.00
2022-09-09T00:50:26.918Z,6.65
2022-09-09T00:53:03.658Z,6.50
2022-09-09T00:55:53.030Z,6.88
2022-09-09T00:58:20.393Z,6.15
2022-09-09T01:00:52.274Z,5.90
2022-09-09T01:03:56.248Z,7.05
2022-09-09T01:06:33.345Z,7.50
2022-09-09T01:09:23.602Z,8.13
2022-09-09T01:12:06.121Z,8.13
2022-09-09T01:17:18.326Z,7.25
2022-09-09T01:20:10.653Z,7.80
2022-09-09T01:23:07.939Z,7.82
2022-09-09T01:26:15.635Z,7.75
2022-09-09T01:28:49.895Z,7.20
2022-09-09T01:31:24.115Z,7.05
2022-09-09T01:33:52.407Z,6.20
2022-09-09T01:36:40.071Z,6.65
2022-09-09T01:39:07.966Z,7.13
2022-09-09T01:41:35.790Z,8.48
2022-09-09T01:44:09.995Z,7.03
2022-09-09T01:46:39.531Z,6.80
2022-09-09T01:49:12.445Z,6.03
2022-09-09T01:51:42.510Z,6.80
2022-09-09T01:54:13.009Z,5.95
2022-09-09T01:56:49.493Z,5.57
2022-09-09T01:59:23.306Z,5.20
2022-09-09T02:02:09.291Z,5.32
2022-09-09T02:04:49.397Z,5.72
2022-09-09T02:07:32.956Z,4.68
2022-09-09T02:10:33.582Z,4.43
2022-09-09T02:13:19.090Z,4.53
2022-09-09T02:16:09.911Z,4.88
2022-09-09T02:18:53.419Z,4.28
2022-09-09T02:21:29.532Z,4.88
2022-09-09T02:24:00.094Z,4.22
2022-09-09T02:26:29.457Z,4.30
2022-09-09T02:29:07.260Z,3.67
2022-09-09T02:34:11.776Z,3.90
2022-09-09T02:36:44.043Z,3.90
2022-09-09T02:41:41.613Z,4.13
2022-09-09T02:44:20.435Z,4.38
2022-09-09T02:47:44.401Z,4.25
2022-09-09T02:50:23.694Z,4.28
2022-09-09T02:53:11.100Z,4.30
2022-09-09T02:55:59.143Z,4.65
2022-09-09T02:58:27.594Z,4.68
2022-09-09T03:01:02.156Z,4.82
2022-09-09T03:03:31.352Z,4.70
2022-09-09T03:06:00.745Z,4.93
2022-09-09T03:08:29.155Z,4.90
2022-09-09T03:11:02.148Z,5.75
2022-09-09T03:13:32.510Z,4.70
2022-09-09T03:16:00.671Z,5.57
2022-09-09T03:18:29.973Z,5.47
2022-09-09T03:20:59.167Z,5.50
2022-09-09T03:23:26.595Z,4.75
2022-09-09T03:25:57.842Z,5.72
2022-09-09T03:28:32.497Z,5.30
2022-09-09T03:31:06.391Z,5.00
2022-09-09T03:33:40.034Z,4.68
2022-09-09T03:36:09.525Z,5.60
2022-09-09T03:38:37.166Z,5.63
2022-09-09T03:41:08.737Z,5.40
2022-09-09T03:43:37.426Z,4.65
2022-09-09T03:46:05.569Z,5.85
2022-09-09T03:48:33.023Z,5.57
2022-09-09T03:51:01.805Z,6.38
2022-09-09T03:53:30.947Z,7.07
2022-09-09T03:56:01.009Z,5.18
2022-09-09T03:58:29.688Z,5.75
2022-09-09T04:01:10.438Z,6.07
2022-09-09T04:03:39.246Z,5.90
2022-09-09T04:06:08.776Z,5.80
2022-09-09T04:08:37.291Z,5.25
2022-09-09T04:11:07.494Z,5.05
2022-09-09T04:13:38.654Z,5.53
2022-09-09T04:16:07.138Z,5.78
2022-09-09T04:18:36.861Z,4.90
2022-09-09T04:21:05.547Z,5.15
2022-09-09T04:23:35.176Z,4.88
2022-09-09T04:26:03.888Z,4.80
2022-09-09T04:28:35.288Z,5.57
2022-09-09T04:31:13.849Z,5.20
2022-09-09T04:33:41.878Z,5.63
2022-09-09T04:36:11.308Z,5.90
2022-09-09T04:38:39.141Z,12.00
2022-09-09T04:41:07.215Z,6.93
2022-09-09T04:43:36.225Z,11.82
2022-09-09T04:46:06.693Z,7.22
2022-09-09T04:48:34.540Z,6.20
2022-09-09T04:51:06.155Z,4.75
2022-09-09T04:53:39.080Z,5.47
2022-09-09T04:56:07.816Z,5.28
2022-09-09T04:58:43.939Z,5.10
2022-09-09T05:01:18.500Z,4.95
2022-09-09T05:03:47.636Z,4.65
2022-09-09T05:06:21.375Z,5.20
2022-09-09T05:08:51.585Z,4.38
2022-09-09T05:11:27.853Z,5.13
2022-09-09T05:14:00.367Z,4.40
2022-09-09T05:16:31.189Z,4.57
2022-09-09T05:19:00.795Z,4.80
2022-09-09T05:21:37.058Z,4.25
2022-09-09T05:24:04.607Z,4.68
2022-09-09T05:26:32.575Z,5.13
2022-09-09T05:29:01.508Z,4.50
2022-09-09T05:31:31.404Z,5.47
2022-09-09T05:34:02.102Z,23.08
2022-09-09T05:36:30.075Z,5.55
2022-09-09T05:38:58.153Z,13.88
2022-09-09T05:41:29.869Z,4.72
2022-09-09T05:44:02.081Z,4.30
2022-09-09T05:46:29.642Z,4.70
2022-09-09T05:48:57.295Z,4.60
2022-09-09T05:51:31.259Z,4.68
2022-09-09T05:54:00.972Z,5.50
2022-09-09T05:56:33.471Z,3.97
2022-09-09T05:59:02.015Z,4.53
2022-09-09T06:01:33.775Z,4.30
2022-09-09T06:04:03.111Z,4.13
2022-09-09T06:06:38.241Z,8.25
2022-09-09T06:09:11.543Z,5.60
2022-09-09T06:11:42.094Z,3.30
2022-09-09T06:14:10.690Z,2.90
2022-09-09T06:16:39.617Z,2.45
2022-09-09T06:19:13.954Z,2.47
2022-09-09T06:21:42.132Z,3.17
2022-09-09T06:24:11.187Z,2.50
2022-09-09T06:26:42.019Z,2.30
2022-09-09T06:29:12.706Z,2.40
2022-09-09T06:31:42.396Z,2.67
2022-09-09T06:34:21.774Z,2.38
2022-09-09T06:36:53.077Z,2.80
2022-09-09T06:39:25.488Z,3.03
2022-09-09T06:41:54.389Z,1.92
2022-09-09T06:44:40.634Z,1.77
2022-09-09T06:47:13.126Z,2.42
2022-09-09T06:49:47.759Z,2.40
2022-09-09T06:52:16.045Z,2.53
2022-09-09T06:54:43.771Z,2.10
2022-09-09T06:59:58.816Z,2.03
2022-09-09T07:02:26.291Z,1.90
2022-09-09T07:04:54.502Z,4.43
2022-09-09T07:07:22.018Z,2.22
2022-09-09T07:09:50.204Z,1.90
2022-09-09T07:12:17.646Z,2.40
2022-09-09T07:14:52.755Z,3.15
2022-09-09T07:17:20.130Z,2.78
2022-09-09T07:19:48.590Z,2.53
2022-09-09T07:22:17.223Z,3.13
2022-09-09T07:24:46.106Z,2.15
2022-09-09T07:27:14.324Z,2.60
2022-09-09T07:29:42.320Z,2.58
2022-09-09T07:32:10.131Z,2.40
2022-09-09T07:34:38.947Z,2.95
2022-09-09T07:37:06.926Z,2.45
2022-09-09T07:39:35.991Z,2.75
2022-09-09T07:42:03.519Z,2.40
2022-09-09T07:44:35.793Z,2.13
2022-09-09T07:47:07.473Z,2.58
2022-09-09T07:49:43.062Z,2.55
2022-09-09T07:52:12.600Z,2.58
2022-09-09T07:54:43.858Z,2.55
2022-09-09T07:57:13.234Z,3.22
2022-09-09T07:59:40.666Z,2.70
2022-09-09T08:02:10.599Z,2.58
2022-09-09T08:04:38.355Z,2.60
2022-09-09T08:07:06.342Z,3.00
2022-09-09T08:09:40.864Z,2.60
2022-09-09T08:12:17.727Z,2.53
2022-09-09T08:14:45.516Z,2.58
2022-09-09T08:17:12.909Z,2.33
2022-09-09T08:19:40.351Z,2.20
2022-09-09T08:22:15.575Z,2.25
2022-09-09T08:24:43.310Z,2.85
2022-09-09T08:27:11.030Z,2.25
2022-09-09T08:29:39.433Z,2.00
2022-09-09T08:32:07.465Z,2.55
2022-09-09T08:34:41.164Z,2.42
2022-09-09T08:37:12.291Z,2.35
2022-09-09T08:39:42.525Z,2.63
2022-09-09T08:42:41.697Z,2.20
2022-09-09T08:45:35.886Z,2.40
2022-09-09T08:48:32.682Z,3.17
2022-09-09T08:51:03.100Z,2.35
2022-09-09T08:53:43.631Z,2.05
2022-09-09T08:56:17.232Z,2.45
2022-09-09T08:58:52.111Z,6.78
2022-09-09T09:01:44.012Z,2.95
2022-09-09T09:04:53.520Z,2.38
2022-09-09T09:07:46.470Z,2.35
2022-09-09T09:10:40.640Z,2.40
2022-09-09T09:13:44.199Z,2.35
2022-09-09T09:16:33.537Z,2.40
2022-09-09T09:19:02.559Z,2.60
2022-09-09T09:21:42.886Z,2.78
2022-09-09T09:24:42.116Z,2.65
2022-09-09T09:27:22.666Z,2.60
2022-09-09T09:30:22.460Z,2.67
2022-09-09T09:32:50.995Z,2.38
2022-09-09T09:35:18.442Z,2.70
2022-09-09T09:40:35.867Z,2.75
2022-09-09T09:43:09.699Z,2.30
2022-09-09T09:46:06.944Z,2.20
2022-09-09T09:48:36.058Z,2.58
2022-09-09T09:51:17.270Z,2.50
2022-09-09T09:53:46.187Z,2.63
2022-09-09T09:56:16.210Z,2.58
2022-09-09T09:58:47.508Z,2.88
2022-09-09T10:01:29.574Z,2.47
2022-09-09T10:04:00.147Z,3.38
2022-09-09T10:06:32.222Z,5.85
2022-09-09T10:09:00.298Z,4.15
2022-09-09T10:11:53.733Z,3.85
2022-09-09T10:14:44.909Z,4.50
2022-09-09T10:17:46.459Z,4.00
2022-09-09T10:20:40.966Z,3.17
2022-09-09T10:23:29.910Z,2.28
2022-09-09T10:26:15.682Z,3.28
2022-09-09T10:29:25.606Z,2.53
2022-09-09T10:32:29.646Z,3.22
2022-09-09T11:38:18.965Z,1.85
2022-09-09T11:40:47.688Z,1.45
2022-09-09T11:43:16.247Z,1.52
2022-09-09T11:45:51.545Z,1.27
2022-09-09T11:48:28.339Z,1.60
2022-09-09T11:51:01.546Z,1.45
2022-09-09T11:53:28.986Z,1.42
2022-09-09T11:56:10.813Z,1.30
2022-09-09T11:58:55.449Z,1.23
2022-09-09T12:01:44.043Z,1.42
2022-09-09T12:04:31.081Z,1.00
2022-09-09T12:07:26.645Z,1.33
2022-09-09T12:10:01.882Z,2.35
2022-09-09T12:12:43.807Z,1.40
2022-09-09T12:17:54.268Z,1.45
2022-09-09T12:20:32.433Z,1.52
2022-09-09T12:23:17.215Z,1.02
2022-09-09T12:25:50.253Z,1.42
2022-09-09T12:28:17.708Z,1.33
2022-09-09T12:31:14.270Z,1.25
2022-09-09T12:33:46.307Z,1.38
2022-09-09T12:36:20.395Z,1.30
2022-09-09T12:38:48.409Z,1.38
2022-09-09T12:41:27.813Z,1.20
2022-09-09T12:44:10.627Z,1.20
2022-09-09T12:46:44.666Z,1.17
2022-09-09T12:49:35.097Z,1.55
2022-09-09T12:52:31.039Z,1.50
2022-09-09T12:55:02.608Z,1.40
2022-09-09T12:57:39.591Z,1.30
2022-09-09T13:00:19.537Z,1.33
2022-09-09T13:02:51.206Z,1.15
2022-09-09T13:05:27.660Z,1.33
2022-09-09T13:08:05.973Z,1.20
2022-09-09T13:10:52.428Z,1.27
2022-09-09T13:13:31.096Z,1.42
2022-09-09T13:16:03.394Z,1.20
2022-09-09T13:18:39.231Z,0.90
2022-09-09T13:21:07.272Z,1.30
2022-09-09T13:23:37.271Z,1.67
2022-09-09T13:26:23.564Z,1.30
2022-09-09T13:28:51.535Z,1.75
2022-09-09T13:31:23.686Z,1.50
2022-09-09T13:36:32.791Z,1.10
2022-09-09T13:39:02.481Z,2.55
2022-09-09T13:41:47.801Z,1.80
2022-09-09T13:44:42.731Z,1.60
2022-09-09T13:47:10.858Z,1.70
2022-09-09T13:49:38.445Z,1.85
2022-09-09T13:52:12.862Z,1.67
2022-09-09T13:54:41.215Z,1.75
2022-09-09T13:57:19.137Z,2.03
2022-09-09T14:00:03.988Z,1.73
2022-09-09T14:02:32.370Z,1.75
2022-09-09T14:04:59.872Z,1.83
2022-09-09T14:07:28.191Z,1.48
2022-09-09T14:09:55.580Z,1.83
2022-09-09T14:12:22.940Z,1.63
2022-09-09T14:14:50.874Z,1.30
2022-09-09T14:17:18.537Z,1.35
2022-09-09T14:19:46.997Z,1.10
2022-09-09T14:22:14.702Z,1.02
2022-09-09T14:24:42.152Z,1.50
2022-09-09T14:27:09.731Z,1.20
2022-09-09T14:29:37.109Z,1.48
2022-09-09T14:32:05.407Z,1.20
2022-09-09T14:34:35.415Z,1.80
2022-09-09T14:37:03.059Z,1.27
2022-09-09T14:39:30.441Z,1.50
2022-09-09T14:41:57.841Z,1.98
2022-09-09T14:44:25.337Z,1.02
2022-09-09T14:46:52.735Z,1.30
2022-09-09T14:49:20.076Z,1.33
2022-09-09T14:51:47.481Z,1.80
2022-09-09T14:54:15.788Z,1.52
2022-09-09T14:56:43.266Z,1.33
2022-09-09T14:59:10.670Z,1.33
2022-09-09T15:01:38.981Z,1.50
2022-09-09T15:04:07.277Z,1.05
2022-09-09T15:06:39.454Z,1.10
2022-09-09T15:11:38.933Z,1.60
2022-09-09T15:14:07.838Z,1.20
2022-09-09T15:16:36.210Z,1.20
2022-09-09T15:19:04.647Z,1.17
2022-09-09T15:21:34.739Z,2.25
2022-09-09T15:24:02.164Z,1.27
2022-09-09T15:26:31.124Z,1.30
2022-09-09T15:29:00.153Z,1.60
2022-09-09T15:31:32.864Z,1.85
2022-09-09T15:34:02.725Z,1.63
2022-09-09T15:36:35.857Z,1.60
2022-09-09T15:39:05.498Z,1.27
2022-09-09T15:41:33.435Z,1.83
2022-09-09T15:44:04.100Z,1.73
2022-09-09T15:46:39.945Z,1.50
2022-09-09T15:49:13.899Z,1.30
2022-09-09T15:51:45.658Z,1.65
2022-09-09T15:54:15.304Z,1.45
2022-09-09T15:56:42.978Z,1.50
2022-09-09T15:59:11.055Z,1.70
2022-09-09T16:01:40.598Z,2.00
2022-09-09T16:04:08.071Z,1.90
2022-09-09T16:06:35.485Z,1.70
2022-09-09T16:09:05.336Z,1.58
2022-09-09T16:11:36.055Z,1.38
2022-09-09T16:14:04.979Z,1.50
2022-09-09T16:16:33.382Z,1.67
2022-09-09T16:19:05.415Z,1.63
2022-09-09T16:21:36.247Z,1.75
2022-09-09T16:24:05.497Z,1.52
2022-09-09T16:26:35.280Z,1.50
2022-09-09T16:29:03.837Z,2.13
2022-09-09T16:31:33.307Z,1.88
2022-09-09T16:34:01.328Z,1.70
2022-09-09T16:36:35.147Z,1.80
2022-09-09T16:39:07.740Z,1.60
2022-09-09T16:41:36.835Z,1.50
2022-09-09T16:44:07.020Z,1.33
2022-09-09T16:46:40.853Z,1.58
2022-09-09T16:49:11.759Z,3.35
2022-09-09T16:51:48.344Z,2.00
2022-09-09T16:54:18.171Z,1.65
2022-09-09T16:56:47.800Z,1.58
2022-09-09T16:59:20.489Z,1.40
2022-09-09T17:01:51.652Z,1.50
2022-09-09T17:04:21.980Z,1.25
2022-09-09T17:06:51.289Z,1.42
2022-09-09T17:09:20.542Z,1.55
2022-09-09T17:11:49.191Z,1.60
2022-09-09T17:14:19.049Z,3.20
2022-09-09T17:16:47.751Z,1.90
2022-09-09T17:19:15.955Z,1.80
2022-09-09T17:22:00.444Z,1.63
2022-09-09T17:24:31.402Z,1.50
2022-09-09T17:26:59.041Z,1.92
2022-09-09T17:29:26.869Z,1.70
2022-09-09T17:31:56.060Z,1.75
2022-09-09T17:34:24.210Z,1.60
2022-09-09T17:36:51.709Z,1.60
2022-09-09T17:39:19.376Z,2.25
2022-09-09T17:41:46.967Z,1.63
2022-09-09T17:44:14.681Z,1.50
2022-09-09T17:46:43.798Z,1.60
2022-09-09T17:49:13.936Z,1.75
2022-09-09T17:51:42.829Z,1.67
2022-09-09T17:54:16.134Z,2.20
2022-09-09T17:56:45.111Z,1.60
2022-09-09T17:59:14.552Z,1.90
2022-09-09T18:01:45.277Z,2.70
2022-09-09T18:04:15.207Z,2.30
2022-09-09T18:06:48.897Z,2.60
2022-09-09T18:09:23.609Z,2.58
2022-09-09T18:11:54.616Z,3.90
2022-09-09T18:14:25.632Z,5.10
2022-09-09T18:16:53.933Z,2.42
2022-09-09T18:19:24.843Z,2.72
2022-09-09T18:21:54.695Z,2.00
2022-09-09T18:24:23.791Z,2.50
2022-09-09T18:26:51.870Z,2.13
2022-09-09T18:29:24.065Z,2.10
2022-09-09T18:31:53.357Z,1.83
2022-09-09T18:34:22.881Z,2.50
2022-09-09T18:36:53.844Z,2.00
2022-09-09T18:39:24.912Z,1.90
2022-09-09T18:41:56.381Z,1.77
2022-09-09T18:44:26.705Z,2.30
2022-09-09T18:46:54.488Z,2.10
2022-09-09T18:49:23.933Z,2.30
2022-09-09T18:51:51.715Z,2.70
2022-09-09T18:54:23.798Z,1.80
2022-09-09T18:56:51.334Z,2.00
2022-09-09T18:59:20.891Z,2.22
2022-09-09T19:01:50.514Z,2.20
2022-09-09T19:04:21.188Z,3.10
2022-09-09T19:06:49.962Z,4.70
2022-09-09T19:09:19.116Z,3.60
2022-09-09T19:11:47.257Z,3.28
2022-09-09T19:14:17.343Z,3.17
2022-09-09T19:16:45.337Z,2.67
2022-09-09T19:19:23.123Z,2.95
2022-09-09T19:21:51.693Z,3.30
2022-09-09T19:24:24.602Z,3.10
2022-09-09T19:26:54.279Z,3.55
2022-09-09T19:29:27.739Z,3.55
2022-09-09T19:34:45.256Z,2.92
2022-09-09T19:37:17.647Z,3.22
2022-09-09T19:39:46.669Z,2.97
2022-09-09T19:42:14.366Z,2.70
2022-09-09T19:44:41.777Z,2.70
2022-09-09T19:47:09.156Z,2.95
2022-09-09T19:49:37.208Z,2.63
2022-09-09T19:52:04.804Z,2.85
2022-09-09T19:54:32.316Z,2.85
2022-09-09T19:57:01.187Z,2.58
2022-09-09T19:59:28.971Z,5.68
2022-09-09T20:01:56.977Z,3.47
2022-09-09T20:04:24.873Z,3.47
2022-09-09T20:06:53.228Z,2.92
2022-09-09T20:09:21.645Z,2.83
2022-09-09T20:11:50.050Z,2.80
2022-09-09T20:14:19.196Z,3.25
2022-09-09T20:16:47.364Z,2.92
2022-09-09T20:19:18.679Z,2.80
2022-09-09T20:21:52.115Z,2.85
2022-09-09T20:24:22.930Z,2.40
2022-09-09T20:26:50.694Z,2.22
2022-09-09T20:29:19.895Z,2.30
2022-09-09T20:31:47.745Z,2.17
2022-09-09T20:34:18.829Z,2.40
2022-09-09T20:36:47.070Z,2.83
2022-09-09T20:39:20.343Z,2.38
2022-09-09T20:41:48.288Z,2.33
2022-09-09T20:44:21.750Z,2.95
2022-09-09T20:46:51.866Z,2.80
2022-09-09T20:49:20.809Z,2.42
2022-09-09T20:51:50.451Z,3.05
2022-09-09T20:54:21.007Z,2.40
2022-09-09T20:56:50.362Z,2.47
2022-09-09T20:59:20.457Z,2.65
2022-09-09T21:01:48.637Z,2.67
2022-09-09T21:04:18.270Z,2.55
2022-09-09T21:06:46.762Z,2.47
2022-09-09T21:09:14.654Z,2.30
2022-09-09T21:11:42.498Z,2.75
2022-09-09T21:14:10.872Z,2.50
2022-09-09T21:16:38.278Z,3.80
2022-09-09T21:19:06.825Z,3.47
2022-09-09T21:21:36.260Z,3.72
2022-09-09T21:38:21.576Z,4.47
2022-09-09T21:40:50.205Z,4.43
2022-09-09T21:43:19.722Z,4.47
2022-09-09T21:45:47.574Z,5.55
2022-09-09T21:48:16.277Z,4.50
2022-09-09T21:50:46.014Z,5.80
2022-09-09T21:53:15.870Z,4.70
2022-09-09T21:55:43.563Z,3.80
2022-09-09T21:58:11.760Z,4.22
2022-09-09T22:00:46.870Z,5.20
2022-09-09T22:03:16.053Z,5.82
2022-09-09T22:05:45.607Z,5.47
2022-09-09T22:08:16.494Z,5.13
2022-09-09T22:10:46.237Z,5.78
2022-09-09T22:13:15.399Z,4.70
2022-09-09T22:15:44.766Z,5.40
2022-09-09T22:18:13.382Z,5.53
2022-09-09T22:20:43.530Z,4.97
2022-09-09T22:23:12.627Z,4.95
2022-09-09T22:25:40.788Z,5.43
2022-09-09T22:28:09.494Z,5.40
2022-09-09T22:30:39.493Z,5.13
2022-09-09T22:33:06.918Z,4.93
2022-09-09T22:35:42.357Z,3.85
2022-09-09T22:38:10.822Z,3.33
2022-09-09T22:40:39.561Z,3.25
2022-09-09T22:43:13.348Z,3.53
2022-09-09T22:45:41.677Z,2.65
2022-09-09T22:48:09.110Z,2.78
2022-09-09T22:50:41.933Z,3.35
2022-09-09T22:53:13.617Z,2.40
2022-09-09T22:55:41.372Z,2.70
2022-09-09T22:58:09.975Z,2.58
2022-09-09T23:00:41.759Z,2.50
2022-09-09T23:03:09.166Z,2.00
2022-09-09T23:05:38.484Z,2.58
2022-09-09T23:08:06.081Z,2.97
2022-09-09T23:10:33.831Z,2.75
2022-09-09T23:13:01.715Z,3.15
2022-09-09T23:15:31.157Z,3.60
2022-09-09T23:17:58.686Z,3.40
2022-09-09T23:20:26.879Z,2.92
2022-09-09T23:22:54.408Z,3.00
2022-09-09T23:25:22.850Z,3.90
2022-09-09T23:27:50.241Z,4.57
2022-09-09T23:30:18.337Z,4.10
2022-09-09T23:32:48.460Z,4.63
2022-09-09T23:35:16.001Z,4.03
2022-09-09T23:37:43.369Z,4.25
2022-09-09T23:40:10.944Z,4.88
2022-09-09T23:42:38.457Z,5.32
2022-09-09T23:45:06.598Z,5.30
2022-09-09T23:47:33.935Z,5.43
2022-09-09T23:50:02.450Z,6.07
2022-09-09T23:52:30.594Z,6.10
2022-09-09T23:54:57.954Z,6.20
2022-09-09T23:57:26.258Z,6.82
2022-09-09T23:59:53.626Z,7.22
